createdAt,value
2023-03-05T00:00:00.227Z,4.16
2023-03-05T00:01:00.413Z,4.12
2023-03-05T00:02:00.589Z,4.13
2023-03-05T00:03:00.808Z,4.09
2023-03-05T00:04:00.892Z,4.03
2023-03-05T00:05:01.102Z,4.00
2023-03-05T00:06:01.178Z,3.99
2023-03-05T00:07:01.377Z,3.94
2023-03-05T00:08:01.603Z,3.92
2023-03-05T00:09:01.687Z,3.86
2023-03-05T00:10:01.809Z,3.85
2023-03-05T00:11:01.901Z,3.78
2023-03-05T00:12:01.981Z,3.78
2023-03-05T00:13:02.181Z,3.76
2023-03-05T00:14:02.276Z,3.73
2023-03-05T00:15:02.504Z,3.64
2023-03-05T00:16:02.601Z,3.56
2023-03-05T00:17:02.803Z,3.53
2023-03-05T00:18:02.905Z,3.49
2023-03-05T00:19:03.104Z,3.48
2023-03-05T00:20:03.232Z,3.50
2023-03-05T00:21:03.352Z,3.50
2023-03-05T00:22:03.430Z,3.49
2023-03-05T00:23:03.637Z,3.50
2023-03-05T00:24:03.725Z,3.48
2023-03-05T00:25:03.944Z,3.40
2023-03-05T00:26:04.036Z,3.34
2023-03-05T00:27:04.144Z,3.40
2023-03-05T00:28:04.276Z,3.37
2023-03-05T00:29:04.379Z,3.31
2023-03-05T00:30:04.501Z,3.31
2023-03-05T00:31:04.649Z,3.30
2023-03-05T00:32:04.777Z,3.30
2023-03-05T00:33:04.896Z,3.29
2023-03-05T00:34:05.014Z,3.30
2023-03-05T00:35:05.168Z,3.29
2023-03-05T00:36:05.384Z,3.27
2023-03-05T00:37:05.469Z,3.21
2023-03-05T00:38:05.565Z,3.21
2023-03-05T00:39:05.690Z,3.19
2023-03-05T00:40:05.852Z,3.18
2023-03-05T00:41:05.987Z,3.13
2023-03-05T00:42:06.107Z,3.11
2023-03-05T00:43:06.236Z,3.15
2023-03-05T00:44:06.345Z,3.13
2023-03-05T00:45:06.505Z,3.13
2023-03-05T00:46:06.684Z,3.13
2023-03-05T00:47:06.818Z,3.15
2023-03-05T00:48:06.932Z,3.12
2023-03-05T00:49:07.063Z,3.12
2023-03-05T00:50:07.193Z,3.12
2023-03-05T00:51:07.310Z,3.16
2023-03-05T00:52:07.449Z,3.15
2023-03-05T00:53:07.580Z,3.16
2023-03-05T00:54:07.706Z,3.18
2023-03-05T00:55:07.864Z,3.16
2023-03-05T00:56:07.976Z,3.16
2023-03-05T00:57:08.105Z,3.18
2023-03-05T00:58:08.227Z,3.19
2023-03-05T00:59:08.362Z,3.21
2023-03-05T01:00:08.481Z,3.19
2023-03-05T01:01:08.675Z,3.18
2023-03-05T01:02:08.790Z,3.16
2023-03-05T01:03:08.926Z,3.21
2023-03-05T01:04:09.042Z,3.21
2023-03-05T01:05:09.215Z,3.21
2023-03-05T01:06:09.316Z,3.21
2023-03-05T01:07:09.438Z,3.21
2023-03-05T01:08:09.543Z,3.21
2023-03-05T01:09:09.661Z,3.18
2023-03-05T01:10:09.826Z,3.21
2023-03-05T01:11:09.944Z,3.24
2023-03-05T01:12:10.048Z,3.26
2023-03-05T01:13:10.176Z,3.26
2023-03-05T01:14:10.284Z,3.24
2023-03-05T01:15:10.422Z,3.24
2023-03-05T01:16:10.586Z,3.24
2023-03-05T01:17:10.752Z,3.19
2023-03-05T01:18:10.869Z,3.26
2023-03-05T01:19:10.981Z,3.24
2023-03-05T01:20:11.108Z,3.24
2023-03-05T01:21:11.228Z,3.26
2023-03-05T01:22:11.332Z,3.26
2023-03-05T01:23:11.567Z,3.24
2023-03-05T01:24:11.660Z,3.22
2023-03-05T01:25:11.904Z,3.27
2023-03-05T01:26:12.013Z,3.27
2023-03-05T01:27:12.116Z,3.24
2023-03-05T01:28:12.231Z,3.26
2023-03-05T01:29:12.351Z,3.27
2023-03-05T01:30:12.460Z,3.24
2023-03-05T01:31:12.614Z,3.22
2023-03-05T01:32:12.734Z,3.22
2023-03-05T01:33:12.869Z,3.22
2023-03-05T01:34:12.986Z,3.24
2023-03-05T01:35:13.117Z,3.22
2023-03-05T01:36:13.230Z,3.26
2023-03-05T01:37:13.353Z,3.26
2023-03-05T01:38:13.462Z,3.26
2023-03-05T01:39:13.591Z,3.26
2023-03-05T01:40:13.714Z,3.22
2023-03-05T01:41:13.837Z,3.22
2023-03-05T01:42:13.962Z,3.19
2023-03-05T01:43:14.091Z,3.19
2023-03-05T01:44:14.245Z,3.21
2023-03-05T01:45:14.400Z,3.15
2023-03-05T01:46:14.499Z,3.15
2023-03-05T01:47:14.616Z,3.15
2023-03-05T01:48:14.734Z,3.12
2023-03-05T01:49:14.876Z,3.11
2023-03-05T01:50:15.016Z,3.08
2023-03-05T01:51:15.171Z,3.11
2023-03-05T01:52:15.273Z,3.09
2023-03-05T01:53:15.394Z,3.09
2023-03-05T01:54:15.505Z,3.08
2023-03-05T01:55:15.643Z,3.08
2023-03-05T01:56:15.767Z,3.08
2023-03-05T01:57:15.901Z,3.05
2023-03-05T01:58:16.013Z,3.03
2023-03-05T01:59:16.140Z,3.03
2023-03-05T02:00:16.284Z,3.01
2023-03-05T02:01:16.439Z,3.00
2023-03-05T02:02:16.562Z,3.03
2023-03-05T02:03:16.680Z,3.00
2023-03-05T02:04:16.786Z,3.00
2023-03-05T02:05:16.951Z,2.95
2023-03-05T02:06:17.076Z,2.95
2023-03-05T02:07:17.198Z,2.95
2023-03-05T02:08:17.314Z,2.95
2023-03-05T02:09:17.440Z,2.94
2023-03-05T02:10:17.602Z,2.94
2023-03-05T02:11:17.768Z,2.93
2023-03-05T02:12:17.851Z,2.94
2023-03-05T02:13:17.969Z,2.91
2023-03-05T02:14:18.081Z,2.93
2023-03-05T02:15:18.225Z,2.90
2023-03-05T02:16:18.404Z,2.90
2023-03-05T02:17:18.551Z,2.90
2023-03-05T02:18:18.667Z,2.93
2023-03-05T02:19:18.786Z,2.93
2023-03-05T02:20:18.921Z,2.88
2023-03-05T02:21:19.043Z,2.88
2023-03-05T02:22:19.146Z,2.91
2023-03-05T02:23:19.291Z,2.93
2023-03-05T02:24:19.400Z,2.93
2023-03-05T02:25:19.531Z,2.90
2023-03-05T02:26:19.636Z,2.88
2023-03-05T02:27:19.756Z,2.90
2023-03-05T02:28:19.868Z,2.91
2023-03-05T02:29:20.005Z,2.88
2023-03-05T02:30:20.122Z,2.85
2023-03-05T02:31:20.300Z,2.85
2023-03-05T02:32:20.454Z,2.87
2023-03-05T02:33:20.573Z,2.85
2023-03-05T02:34:20.676Z,2.80
2023-03-05T02:35:20.951Z,2.80
2023-03-05T02:36:21.051Z,2.83
2023-03-05T02:37:21.159Z,2.82
2023-03-05T02:38:21.281Z,2.79
2023-03-05T02:39:21.383Z,2.77
2023-03-05T02:40:21.519Z,2.76
2023-03-05T02:41:21.636Z,2.76
2023-03-05T02:42:21.750Z,2.77
2023-03-05T02:43:21.859Z,2.76
2023-03-05T02:44:21.978Z,2.77
2023-03-05T02:45:22.102Z,2.77
2023-03-05T02:46:22.223Z,2.77
2023-03-05T02:47:22.324Z,2.80
2023-03-05T02:48:22.435Z,2.82
2023-03-05T02:49:22.573Z,2.85
2023-03-05T02:50:22.711Z,2.83
2023-03-05T02:51:22.834Z,2.79
2023-03-05T02:52:22.953Z,2.82
2023-03-05T02:53:23.057Z,2.79
2023-03-05T02:54:23.194Z,2.79
2023-03-05T02:55:23.348Z,2.80
2023-03-05T02:56:23.458Z,2.80
2023-03-05T02:57:23.559Z,2.82
2023-03-05T02:58:23.688Z,2.79
2023-03-05T02:59:23.792Z,2.79
2023-03-05T03:00:23.956Z,2.76
2023-03-05T03:01:24.219Z,2.76
2023-03-05T03:02:24.214Z,2.77
2023-03-05T03:03:24.351Z,2.77
2023-03-05T03:04:24.483Z,2.79
2023-03-05T03:05:24.629Z,2.77
2023-03-05T03:06:24.732Z,2.75
2023-03-05T03:07:24.844Z,2.77
2023-03-05T03:08:24.970Z,2.80
2023-03-05T03:09:25.105Z,2.77
2023-03-05T03:10:25.270Z,2.77
2023-03-05T03:11:25.381Z,2.79
2023-03-05T03:12:25.513Z,2.80
2023-03-05T03:13:25.643Z,2.83
2023-03-05T03:14:25.789Z,2.87
2023-03-05T03:15:25.938Z,2.87
2023-03-05T03:16:26.083Z,2.83
2023-03-05T03:17:26.174Z,2.82
2023-03-05T03:18:26.301Z,2.80
2023-03-05T03:19:26.420Z,2.80
2023-03-05T03:20:26.563Z,2.79
2023-03-05T03:21:33.755Z,2.76
2023-03-05T03:22:28.645Z,2.79
2023-03-05T03:23:27.076Z,2.77
2023-03-05T03:24:27.205Z,2.82
2023-03-05T03:25:27.340Z,2.80
2023-03-05T03:26:27.460Z,2.77
2023-03-05T03:27:27.565Z,2.73
2023-03-05T03:28:27.803Z,2.76
2023-03-05T03:29:27.886Z,2.76
2023-03-05T03:30:28.140Z,2.73
2023-03-05T03:31:28.245Z,2.73
2023-03-05T03:32:28.516Z,2.75
2023-03-05T03:33:28.602Z,2.73
2023-03-05T03:34:28.728Z,2.75
2023-03-05T03:35:28.877Z,2.75
2023-03-05T03:36:28.980Z,2.75
2023-03-05T03:37:29.076Z,2.72
2023-03-05T03:38:29.198Z,2.73
2023-03-05T03:39:29.358Z,2.70
2023-03-05T03:40:29.489Z,2.70
2023-03-05T03:41:29.594Z,2.69
2023-03-05T03:42:29.709Z,2.68
2023-03-05T03:43:29.822Z,2.64
2023-03-05T03:44:29.945Z,2.61
2023-03-05T03:45:30.080Z,2.58
2023-03-05T03:46:30.365Z,2.59
2023-03-05T03:47:30.335Z,2.57
2023-03-05T03:48:30.444Z,2.58
2023-03-05T03:49:30.561Z,2.54
2023-03-05T03:50:30.715Z,2.54
2023-03-05T03:51:30.829Z,2.51
2023-03-05T03:52:30.966Z,2.50
2023-03-05T03:53:31.087Z,2.46
2023-03-05T03:54:31.223Z,2.44
2023-03-05T03:55:31.374Z,2.41
2023-03-05T03:56:31.504Z,2.41
2023-03-05T03:57:31.622Z,2.40
2023-03-05T03:58:31.752Z,2.37
2023-03-05T03:59:31.877Z,2.36
2023-03-05T04:00:32.037Z,2.32
2023-03-05T04:01:32.168Z,2.32
2023-03-05T04:02:32.342Z,2.30
2023-03-05T04:03:32.449Z,2.28
2023-03-05T04:04:32.628Z,2.25
2023-03-05T04:05:32.749Z,2.28
2023-03-05T04:06:32.897Z,2.26
2023-03-05T04:07:33.021Z,2.22
2023-03-05T04:08:33.173Z,2.21
2023-03-05T04:09:33.308Z,2.23
2023-03-05T04:10:33.509Z,2.22
2023-03-05T04:11:33.649Z,2.21
2023-03-05T04:12:33.809Z,2.21
2023-03-05T04:13:33.932Z,2.19
2023-03-05T04:14:34.077Z,2.21
2023-03-05T04:15:34.246Z,2.15
2023-03-05T04:16:34.387Z,2.15
2023-03-05T04:17:34.524Z,2.14
2023-03-05T04:18:34.685Z,2.14
2023-03-05T04:19:34.812Z,2.14
2023-03-05T04:20:34.988Z,2.12
2023-03-05T04:21:35.116Z,2.10
2023-03-05T04:22:35.260Z,2.04
2023-03-05T04:23:35.405Z,2.01
2023-03-05T04:24:35.565Z,2.01
2023-03-05T04:25:35.730Z,2.00
2023-03-05T04:26:35.898Z,1.98
2023-03-05T04:27:36.037Z,1.97
2023-03-05T04:28:36.204Z,1.98
2023-03-05T04:29:36.341Z,1.98
2023-03-05T04:30:36.536Z,1.98
2023-03-05T04:31:36.777Z,1.98
2023-03-05T04:32:36.927Z,1.98
2023-03-05T04:33:37.014Z,1.97
2023-03-05T04:34:37.188Z,1.95
2023-03-05T04:35:37.453Z,1.97
2023-03-05T04:36:37.516Z,1.97
2023-03-05T04:37:37.665Z,1.97
2023-03-05T04:38:37.813Z,1.95
2023-03-05T04:39:37.964Z,1.95
2023-03-05T04:40:38.147Z,1.92
2023-03-05T04:41:38.292Z,1.92
2023-03-05T04:42:38.451Z,1.97
2023-03-05T04:43:38.609Z,1.95
2023-03-05T04:44:38.756Z,1.93
2023-03-05T04:45:38.917Z,1.88
2023-03-05T04:46:39.099Z,1.88
2023-03-05T04:47:39.254Z,1.93
2023-03-05T04:48:39.402Z,1.93
2023-03-05T04:49:39.548Z,1.92
2023-03-05T04:50:39.717Z,1.89
2023-03-05T04:51:39.859Z,1.89
2023-03-05T04:52:40.050Z,1.89
2023-03-05T04:53:40.193Z,1.93
2023-03-05T04:54:40.354Z,1.93
2023-03-05T04:55:40.519Z,1.89
2023-03-05T04:56:40.676Z,1.93
2023-03-05T04:57:40.843Z,1.93
2023-03-05T04:58:40.992Z,1.92
2023-03-05T04:59:41.131Z,1.92
2023-03-05T05:00:41.334Z,1.88
2023-03-05T05:01:41.556Z,1.88
2023-03-05T05:02:41.780Z,1.88
2023-03-05T05:03:41.849Z,1.88
2023-03-05T05:04:42.053Z,1.89
2023-03-05T05:05:42.258Z,1.92
2023-03-05T05:06:42.441Z,1.89
2023-03-05T05:07:42.597Z,1.89
2023-03-05T05:08:42.763Z,1.89
2023-03-05T05:09:42.923Z,1.86
2023-03-05T05:10:43.125Z,1.86
2023-03-05T05:11:43.292Z,1.88
2023-03-05T05:12:43.467Z,1.86
2023-03-05T05:13:43.614Z,1.86
2023-03-05T05:14:43.812Z,1.86
2023-03-05T05:15:44.029Z,1.88
2023-03-05T05:16:44.250Z,1.86
2023-03-05T05:17:44.438Z,1.86
2023-03-05T05:18:44.636Z,1.86
2023-03-05T05:19:44.832Z,1.86
2023-03-05T05:20:45.059Z,1.85
2023-03-05T05:21:45.137Z,1.88
2023-03-05T05:22:45.340Z,1.86
2023-03-05T05:23:45.535Z,1.88
2023-03-05T05:24:45.716Z,1.89
2023-03-05T05:25:45.902Z,1.86
2023-03-05T05:26:46.091Z,1.85
2023-03-05T05:27:46.262Z,1.85
2023-03-05T05:28:46.459Z,1.84
2023-03-05T05:29:46.607Z,1.85
2023-03-05T05:30:46.830Z,1.82
2023-03-05T05:31:47.074Z,1.82
2023-03-05T05:32:47.142Z,1.85
2023-03-05T05:33:49.664Z,1.85
2023-03-05T05:34:47.493Z,1.88
2023-03-05T05:35:47.759Z,1.88
2023-03-05T05:36:47.804Z,1.88
2023-03-05T05:37:47.969Z,1.92
2023-03-05T05:38:48.146Z,1.93
2023-03-05T05:39:48.320Z,1.93
2023-03-05T05:40:48.509Z,1.95
2023-03-05T05:41:48.666Z,1.97
2023-03-05T05:42:48.857Z,2.01
2023-03-05T05:43:49.018Z,2.01
2023-03-05T05:44:49.235Z,2.01
2023-03-05T05:45:49.544Z,2.04
2023-03-05T05:46:49.592Z,2.04
2023-03-05T05:47:49.679Z,2.05
2023-03-05T05:48:49.860Z,2.08
2023-03-05T05:49:50.024Z,2.08
2023-03-05T05:50:50.253Z,2.12
2023-03-05T05:51:50.310Z,2.15
2023-03-05T05:52:50.477Z,2.16
2023-03-05T05:53:50.645Z,2.18
2023-03-05T05:54:50.821Z,2.19
2023-03-05T05:55:51.007Z,2.23
2023-03-05T05:56:51.179Z,2.23
2023-03-05T05:57:51.337Z,2.22
2023-03-05T05:58:51.538Z,2.22
2023-03-05T05:59:51.671Z,2.22
2023-03-05T06:00:51.854Z,2.23
2023-03-05T06:01:52.040Z,2.25
2023-03-05T06:02:52.203Z,2.25
2023-03-05T06:03:52.378Z,2.30
2023-03-05T06:04:52.531Z,2.32
2023-03-05T06:05:52.734Z,2.34
2023-03-05T06:06:52.888Z,2.34
2023-03-05T06:07:53.058Z,2.39
2023-03-05T06:08:53.229Z,2.37
2023-03-05T06:09:53.376Z,2.33
2023-03-05T06:10:53.578Z,2.39
2023-03-05T06:11:53.748Z,2.39
2023-03-05T06:12:53.903Z,2.39
2023-03-05T06:13:54.064Z,2.39
2023-03-05T06:14:54.248Z,2.41
2023-03-05T06:15:54.414Z,2.43
2023-03-05T06:16:54.641Z,2.44
2023-03-05T06:17:54.676Z,2.46
2023-03-05T06:18:54.835Z,2.50
2023-03-05T06:19:54.995Z,2.54
2023-03-05T06:20:55.175Z,2.55
2023-03-05T06:21:55.322Z,2.57
2023-03-05T06:22:55.499Z,2.59
2023-03-05T06:23:55.653Z,2.58
2023-03-05T06:24:55.827Z,2.57
2023-03-05T06:25:56.126Z,2.64
2023-03-05T06:26:56.174Z,2.62
2023-03-05T06:27:56.309Z,2.61
2023-03-05T06:28:56.496Z,2.59
2023-03-05T06:29:56.697Z,2.62
2023-03-05T06:30:56.905Z,2.65
2023-03-05T06:31:57.057Z,2.65
2023-03-05T06:32:57.189Z,2.65
2023-03-05T06:33:57.355Z,2.65
2023-03-05T06:34:57.492Z,2.64
2023-03-05T06:35:57.701Z,2.64
2023-03-05T06:36:57.844Z,2.64
2023-03-05T06:37:57.996Z,2.65
2023-03-05T06:38:58.128Z,2.69
2023-03-05T06:39:58.271Z,2.70
2023-03-05T06:40:58.445Z,2.75
2023-03-05T06:41:58.578Z,2.76
2023-03-05T06:42:58.741Z,2.80
2023-03-05T06:43:58.869Z,2.82
2023-03-05T06:44:59.017Z,2.88
2023-03-05T06:45:59.209Z,2.94
2023-03-05T06:46:59.354Z,2.95
2023-03-05T06:47:59.485Z,3.00
2023-03-05T06:48:59.634Z,2.98
2023-03-05T06:49:59.776Z,3.01
2023-03-05T06:50:59.930Z,3.03
2023-03-05T06:52:00.074Z,3.08
2023-03-05T06:53:00.185Z,3.05
2023-03-05T06:54:00.332Z,3.05
2023-03-05T06:55:00.453Z,3.06
2023-03-05T06:56:00.614Z,3.03
2023-03-05T06:57:00.715Z,3.01
2023-03-05T06:58:00.849Z,3.01
2023-03-05T06:59:00.982Z,3.00
2023-03-05T07:00:01.110Z,3.03
2023-03-05T07:01:01.306Z,3.03
2023-03-05T07:02:01.455Z,3.03
2023-03-05T07:03:01.596Z,3.03
2023-03-05T07:04:01.710Z,3.03
2023-03-05T07:05:01.843Z,3.05
2023-03-05T07:06:01.992Z,3.05
2023-03-05T07:07:02.101Z,3.05
2023-03-05T07:08:02.249Z,3.08
2023-03-05T07:09:02.379Z,3.06
2023-03-05T07:10:02.502Z,3.06
2023-03-05T07:11:02.687Z,3.11
2023-03-05T07:12:02.829Z,3.21
2023-03-05T07:13:02.955Z,3.26
2023-03-05T07:14:03.099Z,3.30
2023-03-05T07:15:03.236Z,3.33
2023-03-05T07:16:03.488Z,3.37
2023-03-05T07:17:03.523Z,3.45
2023-03-05T07:18:03.663Z,3.50
2023-03-05T07:19:03.795Z,3.52
2023-03-05T07:20:03.925Z,3.48
2023-03-05T07:21:04.066Z,3.41
2023-03-05T07:22:04.181Z,3.40
2023-03-05T07:23:04.299Z,3.36
2023-03-05T07:24:04.438Z,3.36
2023-03-05T07:25:04.553Z,3.34
2023-03-05T07:26:04.701Z,3.37
2023-03-05T07:27:04.824Z,3.43
2023-03-05T07:28:04.951Z,3.46
2023-03-05T07:29:05.076Z,3.52
2023-03-05T07:30:05.244Z,3.58
2023-03-05T07:31:05.396Z,3.56
2023-03-05T07:32:05.524Z,3.52
2023-03-05T07:33:05.637Z,3.46
2023-03-05T07:34:05.769Z,3.48
2023-03-05T07:35:05.923Z,3.48
2023-03-05T07:36:06.088Z,3.45
2023-03-05T07:37:06.237Z,3.49
2023-03-05T07:38:06.371Z,3.55
2023-03-05T07:39:06.516Z,3.55
2023-03-05T07:40:06.640Z,3.55
2023-03-05T07:41:06.850Z,3.56
2023-03-05T07:42:07.037Z,3.63
2023-03-05T07:43:07.160Z,3.70
2023-03-05T07:44:07.286Z,3.73
2023-03-05T07:45:07.446Z,3.71
2023-03-05T07:46:07.656Z,3.70
2023-03-05T07:47:07.741Z,3.74
2023-03-05T07:48:07.885Z,3.73
2023-03-05T07:49:08.015Z,3.81
2023-03-05T07:50:08.146Z,3.82
2023-03-05T07:51:08.281Z,3.86
2023-03-05T07:52:08.395Z,3.91
2023-03-05T07:53:08.510Z,3.92
2023-03-05T07:54:08.634Z,3.94
2023-03-05T07:55:08.757Z,3.91
2023-03-05T07:56:08.907Z,3.92
2023-03-05T07:57:09.018Z,3.95
2023-03-05T07:58:09.141Z,4.00
2023-03-05T07:59:09.278Z,4.02
2023-03-05T08:00:09.389Z,4.06
2023-03-05T08:01:09.512Z,4.12
2023-03-05T08:02:09.623Z,4.16
2023-03-05T08:03:09.733Z,4.28
2023-03-05T08:04:09.869Z,4.27
2023-03-05T08:05:09.970Z,4.31
2023-03-05T08:06:10.123Z,4.42
2023-03-05T08:07:10.211Z,4.61
2023-03-05T08:08:10.317Z,4.71
2023-03-05T08:09:10.469Z,5.20
2023-03-05T08:10:10.538Z,5.80
2023-03-05T08:11:10.704Z,6.56
2023-03-05T08:12:10.809Z,7.07
2023-03-05T08:13:10.900Z,7.31
2023-03-05T08:14:10.975Z,7.48
2023-03-05T08:15:11.034Z,6.90
2023-03-05T08:16:11.296Z,6.29
2023-03-05T08:17:11.324Z,6.28
2023-03-05T08:18:11.481Z,6.32
2023-03-05T08:19:11.608Z,6.54
2023-03-05T08:20:11.798Z,6.54
2023-03-05T08:21:11.859Z,6.80
2023-03-05T08:22:11.988Z,6.96
2023-03-05T08:23:12.104Z,7.19
2023-03-05T08:24:12.236Z,7.33
2023-03-05T08:25:12.339Z,7.67
2023-03-05T08:26:12.512Z,8.56
2023-03-05T08:27:12.525Z,9.11
2023-03-05T08:28:12.648Z,8.86
2023-03-05T08:29:12.753Z,8.35
2023-03-05T08:30:12.887Z,7.78
2023-03-05T08:31:13.006Z,7.37
2023-03-05T08:32:13.092Z,7.05
2023-03-05T08:33:13.172Z,7.25
2023-03-05T08:34:13.260Z,7.28
2023-03-05T08:35:13.344Z,7.84
2023-03-05T08:36:13.447Z,8.56
2023-03-05T08:37:13.539Z,8.97
2023-03-05T08:38:13.651Z,8.82
2023-03-05T08:39:13.780Z,8.45
2023-03-05T08:40:13.863Z,8.52
2023-03-05T08:41:13.952Z,8.42
2023-03-05T08:42:14.062Z,8.24
2023-03-05T08:43:14.150Z,7.95
2023-03-05T08:44:14.217Z,7.56
2023-03-05T08:45:14.301Z,7.32
2023-03-05T08:46:14.457Z,7.36
2023-03-05T08:47:14.526Z,7.23
2023-03-05T08:48:14.620Z,6.82
2023-03-05T08:49:14.692Z,6.67
2023-03-05T08:50:14.806Z,6.38
2023-03-05T08:51:14.920Z,6.39
2023-03-05T08:52:15.067Z,6.29
2023-03-05T08:53:15.211Z,6.12
2023-03-05T08:54:15.171Z,6.20
2023-03-05T08:55:15.261Z,6.20
2023-03-05T08:56:15.378Z,6.25
2023-03-05T08:57:15.449Z,6.34
2023-03-05T08:58:15.554Z,6.28
2023-03-05T08:59:15.651Z,6.22
2023-03-05T09:00:15.775Z,6.19
2023-03-05T09:01:16.119Z,5.98
2023-03-05T09:02:15.968Z,5.98
2023-03-05T09:03:16.190Z,6.15
2023-03-05T09:04:16.197Z,6.85
2023-03-05T09:05:16.300Z,6.90
2023-03-05T09:06:16.446Z,7.39
2023-03-05T09:07:16.580Z,7.39
2023-03-05T09:08:16.677Z,7.07
2023-03-05T09:09:16.780Z,7.26
2023-03-05T09:10:16.870Z,7.43
2023-03-05T09:11:16.995Z,7.26
2023-03-05T09:12:17.088Z,7.08
2023-03-05T09:13:17.184Z,6.67
2023-03-05T09:14:17.276Z,6.53
2023-03-05T09:15:17.478Z,6.29
2023-03-05T09:16:17.527Z,6.32
2023-03-05T09:17:17.560Z,6.41
2023-03-05T09:18:17.668Z,6.46
2023-03-05T09:19:17.756Z,6.46
2023-03-05T09:20:17.858Z,6.32
2023-03-05T09:21:17.977Z,6.09
2023-03-05T09:22:25.101Z,5.99
2023-03-05T09:23:18.189Z,5.98
2023-03-05T09:24:18.297Z,5.90
2023-03-05T09:25:18.388Z,5.67
2023-03-05T09:26:18.516Z,5.59
2023-03-05T09:27:18.628Z,5.51
2023-03-05T09:28:18.748Z,5.41
2023-03-05T09:29:18.845Z,5.36
2023-03-05T09:30:18.963Z,5.31
2023-03-05T09:31:19.121Z,5.26
2023-03-05T09:32:19.266Z,5.23
2023-03-05T09:33:19.359Z,5.19
2023-03-05T09:34:19.508Z,5.07
2023-03-05T09:35:19.618Z,5.02
2023-03-05T09:36:19.794Z,5.00
2023-03-05T09:37:19.917Z,4.95
2023-03-05T09:38:20.084Z,5.00
2023-03-05T09:39:20.222Z,5.02
2023-03-05T09:40:20.367Z,5.05
2023-03-05T09:41:20.592Z,5.08
2023-03-05T09:42:20.605Z,5.16
2023-03-05T09:43:20.739Z,5.29
2023-03-05T09:44:20.900Z,5.34
2023-03-05T09:45:21.029Z,5.22
2023-03-05T09:46:21.226Z,5.18
2023-03-05T09:47:21.259Z,5.15
2023-03-05T09:48:21.403Z,5.15
2023-03-05T09:49:21.573Z,5.15
2023-03-05T09:50:21.783Z,5.02
2023-03-05T09:51:21.843Z,5.15
2023-03-05T09:52:21.990Z,5.29
2023-03-05T09:53:22.132Z,5.67
2023-03-05T09:54:22.290Z,6.16
2023-03-05T09:55:22.444Z,6.60
2023-03-05T09:56:22.637Z,7.51
2023-03-05T09:57:22.646Z,7.46
2023-03-05T09:58:22.787Z,7.03
2023-03-05T09:59:22.874Z,6.70
2023-03-05T10:00:22.991Z,6.67
2023-03-05T10:01:23.143Z,6.54
2023-03-05T10:02:23.260Z,6.47
2023-03-05T10:03:23.443Z,6.22
2023-03-05T10:04:23.444Z,6.07
2023-03-05T10:05:23.567Z,5.94
2023-03-05T10:06:23.694Z,5.84
2023-03-05T10:07:23.816Z,5.74
2023-03-05T10:08:23.946Z,5.72
2023-03-05T10:09:24.051Z,5.79
2023-03-05T10:10:24.181Z,5.95
2023-03-05T10:11:24.320Z,6.05
2023-03-05T10:12:24.441Z,6.25
2023-03-05T10:13:24.581Z,6.35
2023-03-05T10:14:24.713Z,6.43
2023-03-05T10:15:24.868Z,6.32
2023-03-05T10:16:25.050Z,6.34
2023-03-05T10:17:25.050Z,6.36
2023-03-05T10:18:25.170Z,6.31
2023-03-05T10:19:25.272Z,6.16
2023-03-05T10:20:25.395Z,6.10
2023-03-05T10:21:25.526Z,6.06
2023-03-05T10:22:25.636Z,5.95
2023-03-05T10:23:25.788Z,5.73
2023-03-05T10:24:25.929Z,5.67
2023-03-05T10:25:26.028Z,5.61
2023-03-05T10:26:26.208Z,5.56
2023-03-05T10:27:26.336Z,5.44
2023-03-05T10:28:26.336Z,5.46
2023-03-05T10:29:26.450Z,5.44
2023-03-05T10:30:26.584Z,5.44
2023-03-05T10:31:26.746Z,5.40
2023-03-05T10:32:26.910Z,5.41
2023-03-05T10:33:27.041Z,5.54
2023-03-05T10:34:27.166Z,5.56
2023-03-05T10:35:27.320Z,5.65
2023-03-05T10:36:27.501Z,5.79
2023-03-05T10:37:27.635Z,5.97
2023-03-05T10:38:27.794Z,6.28
2023-03-05T10:39:27.927Z,6.50
2023-03-05T10:40:28.063Z,6.49
2023-03-05T10:41:28.204Z,6.41
2023-03-05T10:42:31.009Z,6.35
2023-03-05T10:43:28.396Z,6.28
2023-03-05T10:44:28.521Z,6.20
2023-03-05T10:45:28.648Z,6.12
2023-03-05T10:46:28.794Z,6.06
2023-03-05T10:47:28.896Z,6.02
2023-03-05T10:48:29.067Z,6.06
2023-03-05T10:49:29.079Z,6.09
2023-03-05T10:50:29.200Z,6.07
2023-03-05T10:51:29.334Z,6.09
2023-03-05T10:52:29.488Z,6.07
2023-03-05T10:53:29.599Z,6.01
2023-03-05T10:54:29.818Z,5.98
2023-03-05T10:55:29.859Z,5.88
2023-03-05T10:56:30.012Z,5.76
2023-03-05T10:57:30.239Z,5.65
2023-03-05T10:58:30.271Z,5.67
2023-03-05T10:59:30.420Z,5.64
2023-03-05T11:00:30.526Z,5.64
2023-03-05T11:01:30.764Z,5.54
2023-03-05T11:02:30.803Z,5.25
2023-03-05T11:03:30.903Z,5.10
2023-03-05T11:04:31.031Z,5.01
2023-03-05T11:05:31.155Z,4.98
2023-03-05T11:06:31.353Z,4.92
2023-03-05T11:07:31.373Z,4.92
2023-03-05T11:08:31.513Z,4.92
2023-03-05T11:09:31.640Z,4.94
2023-03-05T11:10:31.793Z,4.95
2023-03-05T11:11:31.935Z,4.94
2023-03-05T11:12:32.085Z,4.98
2023-03-05T11:13:32.246Z,5.00
2023-03-05T11:14:32.397Z,5.02
2023-03-05T11:15:32.606Z,4.98
2023-03-05T11:16:34.097Z,5.01
2023-03-05T11:17:32.794Z,5.01
2023-03-05T11:18:32.940Z,5.10
2023-03-05T11:19:33.154Z,5.10
2023-03-05T11:20:33.186Z,5.07
2023-03-05T11:21:33.312Z,5.05
2023-03-05T11:22:34.337Z,5.05
2023-03-05T11:23:33.605Z,5.07
2023-03-05T11:24:33.771Z,5.01
2023-03-05T11:25:33.968Z,4.98
2023-03-05T11:26:33.991Z,5.04
2023-03-05T11:27:34.136Z,5.04
2023-03-05T11:28:34.319Z,5.00
2023-03-05T11:29:34.473Z,5.00
2023-03-05T11:30:34.659Z,4.92
2023-03-05T11:31:35.302Z,4.84
2023-03-05T11:32:34.825Z,4.78
2023-03-05T11:33:34.969Z,4.70
2023-03-05T11:34:35.137Z,4.68
2023-03-05T11:35:35.334Z,4.71
2023-03-05T11:36:35.382Z,4.74
2023-03-05T11:37:35.567Z,4.71
2023-03-05T11:38:35.712Z,4.70
2023-03-05T11:39:35.880Z,4.66
2023-03-05T11:40:36.098Z,4.66
2023-03-05T11:41:36.248Z,4.66
2023-03-05T11:42:36.420Z,4.71
2023-03-05T11:43:36.614Z,4.92
2023-03-05T11:44:36.805Z,5.08
2023-03-05T11:45:37.004Z,5.19
2023-03-05T11:46:37.161Z,5.33
2023-03-05T11:47:37.218Z,5.38
2023-03-05T11:48:37.403Z,5.28
2023-03-05T11:49:37.582Z,5.23
2023-03-05T11:50:37.769Z,5.18
2023-03-05T11:51:37.882Z,5.13
2023-03-05T11:52:37.978Z,5.01
2023-03-05T11:53:38.029Z,4.95
2023-03-05T11:54:38.203Z,4.87
2023-03-05T11:55:38.377Z,4.82
2023-03-05T11:56:38.534Z,4.75
2023-03-05T11:57:38.726Z,4.71
2023-03-05T11:58:38.886Z,4.71
2023-03-05T11:59:39.060Z,4.75
2023-03-05T12:00:39.270Z,4.70
2023-03-05T12:01:39.331Z,4.68
2023-03-05T12:02:39.592Z,4.68
2023-03-05T12:03:39.694Z,4.67
2023-03-05T12:04:39.837Z,4.60
2023-03-05T12:05:40.058Z,4.48
2023-03-05T12:06:40.127Z,4.36
2023-03-05T12:07:40.793Z,4.27
2023-03-05T12:08:40.611Z,4.03
2023-03-05T12:09:40.934Z,3.86
2023-03-05T12:10:40.642Z,3.85
2023-03-05T12:11:40.910Z,3.94
2023-03-05T12:12:40.923Z,4.00
2023-03-05T12:13:42.739Z,4.18
2023-03-05T12:14:41.149Z,4.34
2023-03-05T12:15:41.716Z,4.50
2023-03-05T12:16:41.546Z,4.78
2023-03-05T12:17:42.222Z,5.10
2023-03-05T12:18:41.878Z,5.36
2023-03-05T12:19:41.947Z,5.97
2023-03-05T12:20:42.195Z,6.96
2023-03-05T12:21:42.228Z,7.77
2023-03-05T12:22:42.360Z,7.96
2023-03-05T12:23:42.498Z,7.96
2023-03-05T12:24:43.128Z,7.59
2023-03-05T12:25:42.891Z,7.29
2023-03-05T12:26:43.029Z,7.28
2023-03-05T12:27:43.622Z,7.07
2023-03-05T12:28:43.110Z,7.04
2023-03-05T12:29:43.204Z,7.25
2023-03-05T12:30:43.638Z,7.56
2023-03-05T12:31:43.982Z,8.09
2023-03-05T12:32:43.577Z,8.17
2023-03-05T12:33:43.681Z,8.01
2023-03-05T12:34:44.174Z,7.74
2023-03-05T12:35:44.078Z,7.51
2023-03-05T12:36:43.950Z,7.40
2023-03-05T12:37:44.099Z,7.29
2023-03-05T12:38:44.208Z,7.23
2023-03-05T12:39:44.314Z,7.40
2023-03-05T12:40:45.064Z,7.64
2023-03-05T12:41:44.502Z,7.59
2023-03-05T12:42:44.614Z,7.41
2023-03-05T12:43:44.945Z,7.22
2023-03-05T12:44:44.838Z,7.14
2023-03-05T12:45:44.976Z,6.96
2023-03-05T12:46:45.139Z,6.92
2023-03-05T12:47:45.239Z,6.82
2023-03-05T12:48:45.425Z,6.56
2023-03-05T12:49:45.424Z,6.39
2023-03-05T12:50:45.573Z,6.16
2023-03-05T12:51:45.704Z,6.12
2023-03-05T12:52:45.814Z,6.01
2023-03-05T12:53:45.946Z,5.81
2023-03-05T12:54:46.035Z,5.83
2023-03-05T12:55:46.184Z,5.81
2023-03-05T12:56:46.322Z,5.77
2023-03-05T12:57:46.452Z,5.62
2023-03-05T12:58:46.577Z,5.51
2023-03-05T12:59:46.714Z,5.49
2023-03-05T13:00:46.891Z,5.54
2023-03-05T13:01:47.028Z,5.49
2023-03-05T13:02:47.151Z,5.52
2023-03-05T13:03:47.332Z,5.61
2023-03-05T13:04:47.472Z,5.64
2023-03-05T13:05:47.617Z,5.65
2023-03-05T13:06:47.758Z,5.77
2023-03-05T13:07:47.892Z,5.99
2023-03-05T13:08:48.024Z,6.06
2023-03-05T13:09:48.164Z,6.09
2023-03-05T13:10:48.303Z,6.36
2023-03-05T13:11:48.511Z,6.62
2023-03-05T13:12:48.561Z,6.75
2023-03-05T13:13:48.709Z,6.67
2023-03-05T13:14:48.830Z,6.62
2023-03-05T13:15:48.969Z,6.50
2023-03-05T13:16:49.088Z,6.47
2023-03-05T13:17:49.213Z,6.41
2023-03-05T13:18:49.319Z,6.35
2023-03-05T13:19:49.439Z,6.06